sensor_id;sensor_type;location;lat;lon;timestamp;temperature;humidity
12315;DHT22;23886;46.614;14.276;2022-09-09T00:00:58;14.60;99.90
12315;DHT22;23886;46.614;14.276;2022-09-09T00:03:30;14.70;99.90
12315;DHT22;23886;46.614;14.276;2022-09-09T00:06:03;14.60;99.90
12315;DHT22;23886;46.614;14.276;2022-09-09T00:08:41;14.50;99.90
12315;DHT22;23886;46.614;14.276;2022-09-09T00:11:13;14.40;99.90
12315;DHT22;23886;46.614;14.276;2022-09-09T00:13:46;14.50;99.90
12315;DHT22;23886;46.614;14.276;2022-09-09T00:16:19;14.60;99.90
12315;DHT22;23886;46.614;14.276;2022-09-09T00:18:54;14.50;99.90
12315;DHT22;23886;46.614;14.276;2022-09-09T00:21:26;14.40;99.90
12315;DHT22;23886;46.614;14.276;2022-09-09T00:23:58;14.40;99.90
12315;DHT22;23886;46.614;14.276;2022-09-09T00:26:31;14.30;99.90
12315;DHT22;23886;46.614;14.276;2022-09-09T00:29:10;14.40;99.90
12315;DHT22;23886;46.614;14.276;2022-09-09T00:31:42;14.40;99.90
12315;DHT22;23886;46.614;14.276;2022-09-09T00:34:12;14.40;99.90
12315;DHT22;23886;46.614;14.276;2022-09-09T00:36:40;14.60;99.90
12315;DHT22;23886;46.614;14.276;2022-09-09T00:39:13;14.60;99.90
12315;DHT22;23886;46.614;14.276;2022-09-09T00:41:54;14.60;99.90
12315;DHT22;23886;46.614;14.276;2022-09-09T00:44:30;14.60;99.90
12315;DHT22;23886;46.614;14.276;2022-09-09T00:47:09;14.70;99.90
12315;DHT22;23886;46.614;14.276;2022-09-09T00:49:46;14.70;99.90
12315;DHT22;23886;46.614;14.276;2022-09-09T00:52:32;14.60;99.90
12315;DHT22;23886;46.614;14.276;2022-09-09T00:55:07;14.60;99.90
12315;DHT22;23886;46.614;14.276;2022-09-09T00:57:38;14.70;99.90
12315;DHT22;23886;46.614;14.276;2022-09-09T01:00:22;14.70;99.90
12315;DHT22;23886;46.614;14.276;2022-09-09T01:06:01;14.60;99.90
12315;DHT22;23886;46.614;14.276;2022-09-09T01:08:52;14.60;99.90
12315;DHT22;23886;46.614;14.276;2022-09-09T01:11:24;14.40;99.90
12315;DHT22;23886;46.614;14.276;2022-09-09T01:13:58;14.60;99.90
12315;DHT22;23886;46.614;14.276;2022-09-09T01:16:29;14.60;99.90
12315;DHT22;23886;46.614;14.276;2022-09-09T01:18:57;14.50;99.90
12315;DHT22;23886;46.614;14.276;2022-09-09T01:21:35;14.40;99.90
12315;DHT22;23886;46.614;14.276;2022-09-09T01:24:15;14.40;99.90
12315;DHT22;23886;46.614;14.276;2022-09-09T01:26:46;14.40;99.90
12315;DHT22;23886;46.614;14.276;2022-09-09T01:29:18;14.40;99.90
12315;DHT22;23886;46.614;14.276;2022-09-09T01:31:53;14.50;99.90
12315;DHT22;23886;46.614;14.276;2022-09-09T01:34:22;14.50;99.90
12315;DHT22;23886;46.614;14.276;2022-09-09T01:36:53;14.70;99.90
12315;DHT22;23886;46.614;14.276;2022-09-09T01:39:23;14.70;99.90
12315;DHT22;23886;46.614;14.276;2022-09-09T01:41:52;14.60;99.90
12315;DHT22;23886;46.614;14.276;2022-09-09T01:44:20;14.60;99.90
12315;DHT22;23886;46.614;14.276;2022-09-09T01:46:47;14.60;99.90
12315;DHT22;23886;46.614;14.276;2022-09-09T01:49:14;14.80;99.90
12315;DHT22;23886;46.614;14.276;2022-09-09T01:51:43;14.70;99.90
12315;DHT22;23886;46.614;14.276;2022-09-09T01:54:13;14.60;99.90
12315;DHT22;23886;46.614;14.276;2022-09-09T01:56:54;14.70;99.90
12315;DHT22;23886;46.614;14.276;2022-09-09T01:59:45;14.60;99.90
12315;DHT22;23886;46.614;14.276;2022-09-09T02:02:18;14.60;99.90
12315;DHT22;23886;46.614;14.276;2022-09-09T02:04:48;14.60;99.90
12315;DHT22;23886;46.614;14.276;2022-09-09T02:07:37;14.70;99.90
12315;DHT22;23886;46.614;14.276;2022-09-09T02:10:10;14.70;99.90
12315;DHT22;23886;46.614;14.276;2022-09-09T02:12:41;14.50;99.90
12315;DHT22;23886;46.614;14.276;2022-09-09T02:15:19;14.40;99.90
12315;DHT22;23886;46.614;14.276;2022-09-09T02:17:49;14.20;99.90
12315;DHT22;23886;46.614;14.276;2022-09-09T02:20:18;14.10;99.90
12315;DHT22;23886;46.614;14.276;2022-09-09T02:22:49;14.10;99.90
12315;DHT22;23886;46.614;14.276;2022-09-09T02:25:20;14.10;99.90
12315;DHT22;23886;46.614;14.276;2022-09-09T02:27:49;14.10;99.90
12315;DHT22;23886;46.614;14.276;2022-09-09T02:30:18;14.10;99.90
12315;DHT22;23886;46.614;14.276;2022-09-09T02:32:47;14.30;99.90
12315;DHT22;23886;46.614;14.276;2022-09-09T02:35:17;14.40;99.90
12315;DHT22;23886;46.614;14.276;2022-09-09T02:37:46;14.40;99.90
12315;DHT22;23886;46.614;14.276;2022-09-09T02:40:14;14.50;99.90
12315;DHT22;23886;46.614;14.276;2022-09-09T02:42:44;14.50;99.90
12315;DHT22;23886;46.614;14.276;2022-09-09T02:45:13;14.50;99.90
12315;DHT22;23886;46.614;14.276;2022-09-09T02:47:48;14.40;99.90
12315;DHT22;23886;46.614;14.276;2022-09-09T02:50:21;14.30;99.90
12315;DHT22;23886;46.614;14.276;2022-09-09T02:52:59;14.50;99.90
12315;DHT22;23886;46.614;14.276;2022-09-09T02:55:40;14.60;99.90
12315;DHT22;23886;46.614;14.276;2022-09-09T02:58:10;14.70;99.90
12315;DHT22;23886;46.614;14.276;2022-09-09T03:00:39;14.80;99.90
12315;DHT22;23886;46.614;14.276;2022-09-09T03:03:08;14.80;99.90
12315;DHT22;23886;46.614;14.276;2022-09-09T03:05:36;14.80;99.90
12315;DHT22;23886;46.614;14.276;2022-09-09T03:08:03;14.70;99.90
12315;DHT22;23886;46.614;14.276;2022-09-09T03:10:31;14.60;99.90
12315;DHT22;23886;46.614;14.276;2022-09-09T03:12:58;14.60;99.90
12315;DHT22;23886;46.614;14.276;2022-09-09T03:15:25;14.60;99.90
12315;DHT22;23886;46.614;14.276;2022-09-09T03:17:54;14.70;99.90
12315;DHT22;23886;46.614;14.276;2022-09-09T03:20:24;14.70;99.90
12315;DHT22;23886;46.614;14.276;2022-09-09T03:22:52;14.80;99.90
12315;DHT22;23886;46.614;14.276;2022-09-09T03:25:19;14.80;99.90
12315;DHT22;23886;46.614;14.276;2022-09-09T03:27:49;14.60;99.90
12315;DHT22;23886;46.614;14.276;2022-09-09T03:30:18;14.50;99.90
12315;DHT22;23886;46.614;14.276;2022-09-09T03:32:45;14.50;99.90
12315;DHT22;23886;46.614;14.276;2022-09-09T03:35:12;14.70;99.90
12315;DHT22;23886;46.614;14.276;2022-09-09T03:37:41;14.70;99.90
12315;DHT22;23886;46.614;14.276;2022-09-09T03:40:09;14.50;99.90
12315;DHT22;23886;46.614;14.276;2022-09-09T03:42:36;14.40;99.90
12315;DHT22;23886;46.614;14.276;2022-09-09T03:45:04;14.50;99.90
12315;DHT22;23886;46.614;14.276;2022-09-09T03:47:32;14.40;99.90
12315;DHT22;23886;46.614;14.276;2022-09-09T03:49:59;14.30;99.90
12315;DHT22;23886;46.614;14.276;2022-09-09T03:52:26;14.20;99.90
12315;DHT22;23886;46.614;14.276;2022-09-09T03:54:54;14.20;99.90
12315;DHT22;23886;46.614;14.276;2022-09-09T03:57:22;14.30;99.90
12315;DHT22;23886;46.614;14.276;2022-09-09T03:59:49;14.30;99.90
12315;DHT22;23886;46.614;14.276;2022-09-09T04:02:16;14.30;99.90
12315;DHT22;23886;46.614;14.276;2022-09-09T04:04:43;14.30;99.90
12315;DHT22;23886;46.614;14.276;2022-09-09T04:07:10;14.60;99.90
12315;DHT22;23886;46.614;14.276;2022-09-09T04:09:37;14.50;99.90
12315;DHT22;23886;46.614;14.276;2022-09-09T04:12:06;14.50;99.90
12315;DHT22;23886;46.614;14.276;2022-09-09T04:14:33;14.50;99.90
12315;DHT22;23886;46.614;14.276;2022-09-09T04:17:00;14.60;99.90
12315;DHT22;23886;46.614;14.276;2022-09-09T04:19:29;14.70;99.90
12315;DHT22;23886;46.614;14.276;2022-09-09T04:21:57;14.50;99.90
12315;DHT22;23886;46.614;14.276;2022-09-09T04:24:24;14.50;99.90
12315;DHT22;23886;46.614;14.276;2022-09-09T04:26:53;14.50;99.90
12315;DHT22;23886;46.614;14.276;2022-09-09T04:29:21;14.60;99.90
12315;DHT22;23886;46.614;14.276;2022-09-09T04:31:48;14.50;99.90
12315;DHT22;23886;46.614;14.276;2022-09-09T04:34:15;14.50;99.90
12315;DHT22;23886;46.614;14.276;2022-09-09T04:36:43;14.50;99.90
12315;DHT22;23886;46.614;14.276;2022-09-09T04:39:10;14.60;99.90
12315;DHT22;23886;46.614;14.276;2022-09-09T04:41:37;14.60;99.90
12315;DHT22;23886;46.614;14.276;2022-09-09T04:44:04;14.50;99.90
12315;DHT22;23886;46.614;14.276;2022-09-09T04:46:32;14.50;99.90
12315;DHT22;23886;46.614;14.276;2022-09-09T04:49:00;14.40;99.90
12315;DHT22;23886;46.614;14.276;2022-09-09T04:51:27;14.40;99.90
12315;DHT22;23886;46.614;14.276;2022-09-09T04:53:56;14.40;99.90
12315;DHT22;23886;46.614;14.276;2022-09-09T04:56:24;14.10;99.90
12315;DHT22;23886;46.614;14.276;2022-09-09T04:58:52;14.00;99.90
12315;DHT22;23886;46.614;14.276;2022-09-09T05:01:21;14.10;99.90
12315;DHT22;23886;46.614;14.276;2022-09-09T05:03:51;14.20;99.90
12315;DHT22;23886;46.614;14.276;2022-09-09T05:06:20;14.30;99.90
12315;DHT22;23886;46.614;14.276;2022-09-09T05:08:47;14.30;99.90
12315;DHT22;23886;46.614;14.276;2022-09-09T05:11:19;14.20;99.90
12315;DHT22;23886;46.614;14.276;2022-09-09T05:13:47;14.30;99.90
12315;DHT22;23886;46.614;14.276;2022-09-09T05:16:16;14.50;99.90
12315;DHT22;23886;46.614;14.276;2022-09-09T05:18:44;14.60;99.90
12315;DHT22;23886;46.614;14.276;2022-09-09T05:21:14;14.70;99.90
12315;DHT22;23886;46.614;14.276;2022-09-09T05:23:41;14.50;99.90
12315;DHT22;23886;46.614;14.276;2022-09-09T05:26:12;14.50;99.90
12315;DHT22;23886;46.614;14.276;2022-09-09T05:28:40;14.50;99.90
12315;DHT22;23886;46.614;14.276;2022-09-09T05:31:09;14.50;99.90
12315;DHT22;23886;46.614;14.276;2022-09-09T05:33:38;14.70;99.90
12315;DHT22;23886;46.614;14.276;2022-09-09T05:36:08;14.80;99.90
12315;DHT22;23886;46.614;14.276;2022-09-09T05:38:37;14.70;99.90
12315;DHT22;23886;46.614;14.276;2022-09-09T05:41:05;14.60;99.90
12315;DHT22;23886;46.614;14.276;2022-09-09T05:43:33;14.90;99.90
12315;DHT22;23886;46.614;14.276;2022-09-09T05:46:02;15.00;99.90
12315;DHT22;23886;46.614;14.276;2022-09-09T05:48:30;15.00;99.90
12315;DHT22;23886;46.614;14.276;2022-09-09T05:50:57;14.80;99.90
12315;DHT22;23886;46.614;14.276;2022-09-09T05:53:25;14.90;99.90
12315;DHT22;23886;46.614;14.276;2022-09-09T05:56:00;15.00;99.90
12315;DHT22;23886;46.614;14.276;2022-09-09T05:58:29;14.90;99.90
12315;DHT22;23886;46.614;14.276;2022-09-09T06:01:04;15.10;99.90
12315;DHT22;23886;46.614;14.276;2022-09-09T06:03:32;15.10;99.90
12315;DHT22;23886;46.614;14.276;2022-09-09T06:06:01;15.20;99.90
12315;DHT22;23886;46.614;14.276;2022-09-09T06:08:30;15.20;99.90
12315;DHT22;23886;46.614;14.276;2022-09-09T06:11:03;15.10;99.90
12315;DHT22;23886;46.614;14.276;2022-09-09T06:13:30;15.20;99.90
12315;DHT22;23886;46.614;14.276;2022-09-09T06:15:58;15.20;99.90
12315;DHT22;23886;46.614;14.276;2022-09-09T06:18:25;15.20;99.90
12315;DHT22;23886;46.614;14.276;2022-09-09T06:20:54;15.20;99.90
12315;DHT22;23886;46.614;14.276;2022-09-09T06:23:22;15.40;99.90
12315;DHT22;23886;46.614;14.276;2022-09-09T06:25:50;15.60;99.90
12315;DHT22;23886;46.614;14.276;2022-09-09T06:28:19;15.70;99.90
12315;DHT22;23886;46.614;14.276;2022-09-09T06:30:46;15.70;99.90
12315;DHT22;23886;46.614;14.276;2022-09-09T06:33:13;15.60;99.90
12315;DHT22;23886;46.614;14.276;2022-09-09T06:35:40;15.50;99.90
12315;DHT22;23886;46.614;14.276;2022-09-09T06:38:07;15.50;99.90
12315;DHT22;23886;46.614;14.276;2022-09-09T06:40:34;15.50;99.90
12315;DHT22;23886;46.614;14.276;2022-09-09T06:43:02;15.60;99.90
12315;DHT22;23886;46.614;14.276;2022-09-09T06:45:31;15.30;99.90
12315;DHT22;23886;46.614;14.276;2022-09-09T06:47:58;15.20;99.90
12315;DHT22;23886;46.614;14.276;2022-09-09T06:50:25;15.20;99.90
12315;DHT22;23886;46.614;14.276;2022-09-09T06:52:52;15.00;99.90
12315;DHT22;23886;46.614;14.276;2022-09-09T06:55:19;14.80;99.90
12315;DHT22;23886;46.614;14.276;2022-09-09T06:57:46;14.80;99.90
12315;DHT22;23886;46.614;14.276;2022-09-09T07:00:14;14.80;99.90
12315;DHT22;23886;46.614;14.276;2022-09-09T07:02:42;15.00;99.90
12315;DHT22;23886;46.614;14.276;2022-09-09T07:05:10;15.00;99.90
12315;DHT22;23886;46.614;14.276;2022-09-09T07:07:37;15.00;99.90
12315;DHT22;23886;46.614;14.276;2022-09-09T07:10:05;15.00;99.90
12315;DHT22;23886;46.614;14.276;2022-09-09T07:12:33;15.20;99.90
12315;DHT22;23886;46.614;14.276;2022-09-09T07:15:00;15.10;99.90
12315;DHT22;23886;46.614;14.276;2022-09-09T07:17:27;15.10;99.90
12315;DHT22;23886;46.614;14.276;2022-09-09T07:19:56;15.00;99.90
12315;DHT22;23886;46.614;14.276;2022-09-09T07:22:23;14.80;99.90
12315;DHT22;23886;46.614;14.276;2022-09-09T07:24:50;14.70;99.90
12315;DHT22;23886;46.614;14.276;2022-09-09T07:27:17;14.80;99.90
12315;DHT22;23886;46.614;14.276;2022-09-09T07:29:44;14.70;99.90
12315;DHT22;23886;46.614;14.276;2022-09-09T07:32:12;14.50;99.90
12315;DHT22;23886;46.614;14.276;2022-09-09T07:34:39;14.40;99.90
12315;DHT22;23886;46.614;14.276;2022-09-09T07:37:07;14.40;99.90
12315;DHT22;23886;46.614;14.276;2022-09-09T07:39:37;14.40;99.90
12315;DHT22;23886;46.614;14.276;2022-09-09T07:42:04;14.50;99.90
12315;DHT22;23886;46.614;14.276;2022-09-09T07:44:32;14.50;99.90
12315;DHT22;23886;46.614;14.276;2022-09-09T07:47:01;14.40;99.90
12315;DHT22;23886;46.614;14.276;2022-09-09T07:49:28;14.50;99.90
12315;DHT22;23886;46.614;14.276;2022-09-09T07:51:55;14.60;99.90
12315;DHT22;23886;46.614;14.276;2022-09-09T07:54:24;14.80;99.90
12315;DHT22;23886;46.614;14.276;2022-09-09T07:56:52;15.20;99.90
12315;DHT22;23886;46.614;14.276;2022-09-09T07:59:19;15.50;99.90
12315;DHT22;23886;46.614;14.276;2022-09-09T08:01:48;15.40;99.90
12315;DHT22;23886;46.614;14.276;2022-09-09T08:04:17;15.20;99.90
12315;DHT22;23886;46.614;14.276;2022-09-09T08:06:47;15.30;99.90
12315;DHT22;23886;46.614;14.276;2022-09-09T08:09:15;15.30;99.90
12315;DHT22;23886;46.614;14.276;2022-09-09T08:11:43;15.10;99.90
12315;DHT22;23886;46.614;14.276;2022-09-09T08:14:11;15.10;99.90
12315;DHT22;23886;46.614;14.276;2022-09-09T08:16:41;15.00;99.90
12315;DHT22;23886;46.614;14.276;2022-09-09T08:19:08;15.00;99.90
12315;DHT22;23886;46.614;14.276;2022-09-09T08:21:37;14.90;99.90
12315;DHT22;23886;46.614;14.276;2022-09-09T08:24:06;14.80;99.90
12315;DHT22;23886;46.614;14.276;2022-09-09T08:26:35;14.60;99.90
12315;DHT22;23886;46.614;14.276;2022-09-09T08:29:06;14.60;99.90
12315;DHT22;23886;46.614;14.276;2022-09-09T08:31:35;14.50;99.90
12315;DHT22;23886;46.614;14.276;2022-09-09T08:34:03;14.60;99.90
12315;DHT22;23886;46.614;14.276;2022-09-09T08:36:33;14.70;99.90
12315;DHT22;23886;46.614;14.276;2022-09-09T08:39:05;14.60;99.90
12315;DHT22;23886;46.614;14.276;2022-09-09T08:42:14;14.60;99.90
12315;DHT22;23886;46.614;14.276;2022-09-09T08:44:59;14.30;99.90
12315;DHT22;23886;46.614;14.276;2022-09-09T08:47:34;14.30;99.90
12315;DHT22;23886;46.614;14.276;2022-09-09T08:50:19;14.30;99.90
12315;DHT22;23886;46.614;14.276;2022-09-09T08:52:55;14.40;99.90
12315;DHT22;23886;46.614;14.276;2022-09-09T08:55:28;14.50;99.90
12315;DHT22;23886;46.614;14.276;2022-09-09T08:57:58;14.40;99.90
12315;DHT22;23886;46.614;14.276;2022-09-09T09:00:36;14.40;99.90
12315;DHT22;23886;46.614;14.276;2022-09-09T09:03:15;14.40;99.90
12315;DHT22;23886;46.614;14.276;2022-09-09T09:05:47;14.60;99.90
12315;DHT22;23886;46.614;14.276;2022-09-09T09:08:22;14.70;99.90
12315;DHT22;23886;46.614;14.276;2022-09-09T09:10:54;14.50;99.90
12315;DHT22;23886;46.614;14.276;2022-09-09T09:13:26;14.40;99.90
12315;DHT22;23886;46.614;14.276;2022-09-09T09:16:02;14.60;99.90
12315;DHT22;23886;46.614;14.276;2022-09-09T09:18:31;14.60;99.90
12315;DHT22;23886;46.614;14.276;2022-09-09T09:21:04;14.50;99.90
12315;DHT22;23886;46.614;14.276;2022-09-09T09:23:42;14.50;99.90
12315;DHT22;23886;46.614;14.276;2022-09-09T09:26:10;14.50;99.90
12315;DHT22;23886;46.614;14.276;2022-09-09T09:28:39;14.40;99.90
12315;DHT22;23886;46.614;14.276;2022-09-09T09:31:10;14.40;99.90
12315;DHT22;23886;46.614;14.276;2022-09-09T09:33:46;14.30;99.90
12315;DHT22;23886;46.614;14.276;2022-09-09T09:36:14;14.30;99.90
12315;DHT22;23886;46.614;14.276;2022-09-09T09:38:52;14.30;99.90
12315;DHT22;23886;46.614;14.276;2022-09-09T09:41:32;14.20;99.90
12315;DHT22;23886;46.614;14.276;2022-09-09T09:44:00;14.20;99.90
12315;DHT22;23886;46.614;14.276;2022-09-09T09:46:31;14.30;99.90
12315;DHT22;23886;46.614;14.276;2022-09-09T09:48:59;14.30;99.90
12315;DHT22;23886;46.614;14.276;2022-09-09T09:51:27;14.40;99.90
12315;DHT22;23886;46.614;14.276;2022-09-09T09:54:08;14.50;99.90
12315;DHT22;23886;46.614;14.276;2022-09-09T09:56:36;14.30;99.90
12315;DHT22;23886;46.614;14.276;2022-09-09T09:59:03;14.30;99.90
12315;DHT22;23886;46.614;14.276;2022-09-09T10:01:33;14.30;99.90
12315;DHT22;23886;46.614;14.276;2022-09-09T10:04:02;14.30;99.90
12315;DHT22;23886;46.614;14.276;2022-09-09T10:06:30;14.50;99.90
12315;DHT22;23886;46.614;14.276;2022-09-09T10:08:58;14.70;99.90
12315;DHT22;23886;46.614;14.276;2022-09-09T10:11:44;14.70;99.90
12315;DHT22;23886;46.614;14.276;2022-09-09T10:14:19;14.60;99.90
12315;DHT22;23886;46.614;14.276;2022-09-09T10:16:58;14.70;99.90
12315;DHT22;23886;46.614;14.276;2022-09-09T10:19:30;14.60;99.90
12315;DHT22;23886;46.614;14.276;2022-09-09T10:25:05;15.00;99.90
12315;DHT22;23886;46.614;14.276;2022-09-09T10:27:42;15.10;99.90
12315;DHT22;23886;46.614;14.276;2022-09-09T10:30:16;15.10;99.90
12315;DHT22;23886;46.614;14.276;2022-09-09T10:32:51;15.10;99.90
12315;DHT22;23886;46.614;14.276;2022-09-09T10:35:29;15.10;99.90
12315;DHT22;23886;46.614;14.276;2022-09-09T10:38:18;15.10;99.90
12315;DHT22;23886;46.614;14.276;2022-09-09T10:40:59;15.10;99.90
12315;DHT22;23886;46.614;14.276;2022-09-09T10:43:39;15.00;99.90
12315;DHT22;23886;46.614;14.276;2022-09-09T10:46:17;14.90;99.90
12315;DHT22;23886;46.614;14.276;2022-09-09T10:48:59;14.70;99.90
12315;DHT22;23886;46.614;14.276;2022-09-09T10:51:37;14.60;99.90
12315;DHT22;23886;46.614;14.276;2022-09-09T10:54:23;14.60;99.90
12315;DHT22;23886;46.614;14.276;2022-09-09T10:56:54;14.60;99.90
12315;DHT22;23886;46.614;14.276;2022-09-09T10:59:26;14.60;99.90
12315;DHT22;23886;46.614;14.276;2022-09-09T11:01:57;14.60;99.90
12315;DHT22;23886;46.614;14.276;2022-09-09T11:04:32;14.70;99.90
12315;DHT22;23886;46.614;14.276;2022-09-09T11:07:05;14.50;99.90
12315;DHT22;23886;46.614;14.276;2022-09-09T11:09:36;14.50;99.90
12315;DHT22;23886;46.614;14.276;2022-09-09T11:12:06;14.60;99.90
12315;DHT22;23886;46.614;14.276;2022-09-09T11:14:39;14.70;99.90
12315;DHT22;23886;46.614;14.276;2022-09-09T11:17:11;14.80;99.90
12315;DHT22;23886;46.614;14.276;2022-09-09T11:19:42;15.00;99.90
12315;DHT22;23886;46.614;14.276;2022-09-09T11:22:17;15.00;99.90
12315;DHT22;23886;46.614;14.276;2022-09-09T11:24:51;15.00;99.90
12315;DHT22;23886;46.614;14.276;2022-09-09T11:27:23;15.40;99.90
12315;DHT22;23886;46.614;14.276;2022-09-09T11:36:27;15.60;99.90
12315;DHT22;23886;46.614;14.276;2022-09-09T11:39:02;16.20;99.90
12315;DHT22;23886;46.614;14.276;2022-09-09T11:41:35;16.20;99.90
12315;DHT22;23886;46.614;14.276;2022-09-09T11:44:10;16.40;99.90
12315;DHT22;23886;46.614;14.276;2022-09-09T11:46:38;16.60;99.90
12315;DHT22;23886;46.614;14.276;2022-09-09T11:49:26;16.70;99.90
12315;DHT22;23886;46.614;14.276;2022-09-09T11:51:55;17.00;99.90
12315;DHT22;23886;46.614;14.276;2022-09-09T11:54:29;17.20;99.90
12315;DHT22;23886;46.614;14.276;2022-09-09T11:56:58;16.70;99.90
12315;DHT22;23886;46.614;14.276;2022-09-09T11:59:26;16.30;99.90
12315;DHT22;23886;46.614;14.276;2022-09-09T12:01:56;16.20;99.90
12315;DHT22;23886;46.614;14.276;2022-09-09T12:04:36;16.00;99.90
12315;DHT22;23886;46.614;14.276;2022-09-09T12:07:26;15.90;99.90
12315;DHT22;23886;46.614;14.276;2022-09-09T12:09:59;16.10;99.90
12315;DHT22;23886;46.614;14.276;2022-09-09T12:12:31;16.30;99.90
12315;DHT22;23886;46.614;14.276;2022-09-09T12:15:24;16.30;99.90
12315;DHT22;23886;46.614;14.276;2022-09-09T12:17:55;15.40;99.90
12315;DHT22;23886;46.614;14.276;2022-09-09T12:20:27;16.60;99.90
12315;DHT22;23886;46.614;14.276;2022-09-09T12:23:18;16.90;99.90
12315;DHT22;23886;46.614;14.276;2022-09-09T12:25:59;17.10;99.90
12315;DHT22;23886;46.614;14.276;2022-09-09T12:28:42;17.40;99.90
12315;DHT22;23886;46.614;14.276;2022-09-09T12:31:15;17.50;99.90
12315;DHT22;23886;46.614;14.276;2022-09-09T12:33:45;17.60;99.90
12315;DHT22;23886;46.614;14.276;2022-09-09T12:36:16;18.00;99.90
12315;DHT22;23886;46.614;14.276;2022-09-09T12:38:47;18.60;99.90
12315;DHT22;23886;46.614;14.276;2022-09-09T12:41:26;18.30;99.90
12315;DHT22;23886;46.614;14.276;2022-09-09T12:44:03;18.10;99.90
12315;DHT22;23886;46.614;14.276;2022-09-09T12:46:36;18.00;99.90
12315;DHT22;23886;46.614;14.276;2022-09-09T12:49:03;18.30;99.90
12315;DHT22;23886;46.614;14.276;2022-09-09T12:51:32;18.50;99.90
12315;DHT22;23886;46.614;14.276;2022-09-09T12:54:01;18.80;99.90
12315;DHT22;23886;46.614;14.276;2022-09-09T12:56:31;18.20;99.90
12315;DHT22;23886;46.614;14.276;2022-09-09T12:58:59;18.70;99.90
12315;DHT22;23886;46.614;14.276;2022-09-09T13:01:28;18.90;99.90
12315;DHT22;23886;46.614;14.276;2022-09-09T13:03:56;18.90;99.90
12315;DHT22;23886;46.614;14.276;2022-09-09T13:06:25;18.60;99.90
12315;DHT22;23886;46.614;14.276;2022-09-09T13:08:53;18.60;99.90
12315;DHT22;23886;46.614;14.276;2022-09-09T13:11:24;18.90;99.90
12315;DHT22;23886;46.614;14.276;2022-09-09T13:13:55;18.60;99.90
12315;DHT22;23886;46.614;14.276;2022-09-09T13:16:25;18.20;99.90
12315;DHT22;23886;46.614;14.276;2022-09-09T13:18:56;17.80;99.90
12315;DHT22;23886;46.614;14.276;2022-09-09T13:21:32;17.60;99.90
12315;DHT22;23886;46.614;14.276;2022-09-09T13:24:00;17.60;99.90
12315;DHT22;23886;46.614;14.276;2022-09-09T13:26:30;17.50;99.90
12315;DHT22;23886;46.614;14.276;2022-09-09T13:29:09;17.80;99.90
12315;DHT22;23886;46.614;14.276;2022-09-09T13:31:43;18.20;99.90
12315;DHT22;23886;46.614;14.276;2022-09-09T13:34:11;18.70;99.90
12315;DHT22;23886;46.614;14.276;2022-09-09T13:36:40;19.70;99.90
12315;DHT22;23886;46.614;14.276;2022-09-09T13:39:16;20.60;99.90
12315;DHT22;23886;46.614;14.276;2022-09-09T13:41:47;20.50;99.90
12315;DHT22;23886;46.614;14.276;2022-09-09T13:44:19;20.20;99.90
12315;DHT22;23886;46.614;14.276;2022-09-09T13:47:00;20.30;99.90
12315;DHT22;23886;46.614;14.276;2022-09-09T13:49:29;20.10;99.90
12315;DHT22;23886;46.614;14.276;2022-09-09T13:52:10;19.90;99.90
12315;DHT22;23886;46.614;14.276;2022-09-09T13:54:38;19.70;99.90
12315;DHT22;23886;46.614;14.276;2022-09-09T13:57:14;19.90;99.90
12315;DHT22;23886;46.614;14.276;2022-09-09T13:59:42;19.70;99.90
12315;DHT22;23886;46.614;14.276;2022-09-09T14:02:09;19.40;99.90
12315;DHT22;23886;46.614;14.276;2022-09-09T14:04:36;19.10;99.90
12315;DHT22;23886;46.614;14.276;2022-09-09T14:07:03;18.80;99.90
12315;DHT22;23886;46.614;14.276;2022-09-09T14:09:30;18.70;99.90
12315;DHT22;23886;46.614;14.276;2022-09-09T14:11:57;18.70;99.90
12315;DHT22;23886;46.614;14.276;2022-09-09T14:14:27;18.60;99.90
12315;DHT22;23886;46.614;14.276;2022-09-09T14:16:54;18.80;99.90
12315;DHT22;23886;46.614;14.276;2022-09-09T14:19:21;19.10;99.90
12315;DHT22;23886;46.614;14.276;2022-09-09T14:21:48;19.40;99.90
12315;DHT22;23886;46.614;14.276;2022-09-09T14:24:16;19.70;99.90
12315;DHT22;23886;46.614;14.276;2022-09-09T14:26:43;20.60;99.90
12315;DHT22;23886;46.614;14.276;2022-09-09T14:29:10;21.90;99.90
12315;DHT22;23886;46.614;14.276;2022-09-09T14:31:38;21.80;99.90
12315;DHT22;23886;46.614;14.276;2022-09-09T14:34:05;21.30;99.90
12315;DHT22;23886;46.614;14.276;2022-09-09T14:36:33;20.40;99.90
12315;DHT22;23886;46.614;14.276;2022-09-09T14:39:00;20.00;99.90
12315;DHT22;23886;46.614;14.276;2022-09-09T14:41:26;19.80;99.90
12315;DHT22;23886;46.614;14.276;2022-09-09T14:43:55;19.50;99.90
12315;DHT22;23886;46.614;14.276;2022-09-09T14:46:22;19.10;99.90
12315;DHT22;23886;46.614;14.276;2022-09-09T14:48:51;18.90;99.90
12315;DHT22;23886;46.614;14.276;2022-09-09T14:51:19;18.60;99.90
12315;DHT22;23886;46.614;14.276;2022-09-09T14:53:50;18.30;99.90
12315;DHT22;23886;46.614;14.276;2022-09-09T14:56:20;18.20;99.90
12315;DHT22;23886;46.614;14.276;2022-09-09T14:58:49;18.00;99.90
12315;DHT22;23886;46.614;14.276;2022-09-09T15:01:18;17.70;99.90
12315;DHT22;23886;46.614;14.276;2022-09-09T15:03:51;17.70;99.90
12315;DHT22;23886;46.614;14.276;2022-09-09T15:06:19;17.50;99.90
12315;DHT22;23886;46.614;14.276;2022-09-09T15:08:47;17.40;99.90
12315;DHT22;23886;46.614;14.276;2022-09-09T15:11:16;17.40;99.90
12315;DHT22;23886;46.614;14.276;2022-09-09T15:13:43;17.40;99.90
12315;DHT22;23886;46.614;14.276;2022-09-09T15:16:12;17.50;99.90
12315;DHT22;23886;46.614;14.276;2022-09-09T15:18:40;17.40;99.90
12315;DHT22;23886;46.614;14.276;2022-09-09T15:21:10;17.50;99.90
12315;DHT22;23886;46.614;14.276;2022-09-09T15:23:39;17.60;99.90
12315;DHT22;23886;46.614;14.276;2022-09-09T15:26:06;17.60;99.90
12315;DHT22;23886;46.614;14.276;2022-09-09T15:28:35;17.60;99.90
12315;DHT22;23886;46.614;14.276;2022-09-09T15:31:05;17.60;99.90
12315;DHT22;23886;46.614;14.276;2022-09-09T15:33:33;17.80;99.90
12315;DHT22;23886;46.614;14.276;2022-09-09T15:36:14;17.70;99.90
12315;DHT22;23886;46.614;14.276;2022-09-09T15:38:41;17.60;99.90
12315;DHT22;23886;46.614;14.276;2022-09-09T15:41:09;17.50;99.90
12315;DHT22;23886;46.614;14.276;2022-09-09T15:43:37;17.30;99.90
12315;DHT22;23886;46.614;14.276;2022-09-09T15:46:26;17.20;99.90
12315;DHT22;23886;46.614;14.276;2022-09-09T15:48:54;17.10;99.90
12315;DHT22;23886;46.614;14.276;2022-09-09T15:51:24;17.10;99.90